Time,TemperatureF,DewpointF,PressureIn,WindDirection,WindDirectionDegrees,WindSpeedMPH,WindSpeedGustMPH,Humidity,HourlyPrecipIn,Conditions,Clouds,dailyrainin,SoftwareType,DateUTC
2013-06-07 04:06:00,50.4,49.9,29.97,East,90,0.0,-999.0,98,-99.99,,,0.00,Acu-Link.com,2013-06-07 09:06:00,
2013-06-07 04:21:00,50.7,50.2,29.98,NW,315,0.0,-999.0,98,-99.99,,,0.00,Acu-Link.com,2013-06-07 09:21:00,
2013-06-07 04:57:00,49.6,49.1,29.98,West,270,0.0,-999.0,98,-99.99,,,0.00,Acu-Link.com,2013-06-07 09:57:00,
2013-06-07 05:13:00,49.3,48.8,29.98,WSW,247,0.0,-999.0,98,-99.99,,,0.00,Acu-Link.com,2013-06-07 10:13:00,
2013-06-07 05:29:00,49.1,48.6,29.98,WSW,247,0.0,-999.0,98,-99.99,,,0.00,Acu-Link.com,2013-06-07 10:29:00,
2013-06-07 05:44:00,48.6,48.1,29.98,WSW,247,0.0,-999.0,98,-99.99,,,0.00,Acu-Link.com,2013-06-07 10:44:00,
2013-06-07 05:59:00,48.2,47.7,30.00,WSW,247,0.0,-999.0,98,-99.99,,,0.00,Acu-Link.com,2013-06-07 10:59:00,
2013-06-07 06:16:00,48.2,47.7,29.99,WSW,247,0.0,-999.0,98,-99.99,,,0.00,Acu-Link.com,2013-06-07 11:16:00,
2013-06-07 06:31:00,48.6,48.1,29.98,South,180,0.0,-999.0,98,-99.99,,,0.00,Acu-Link.com,2013-06-07 11:31:00,
2013-06-07 06:50:00,49.3,48.8,29.99,WSW,247,0.0,-999.0,98,-99.99,,,0.00,Acu-Link.com,2013-06-07 11:50:00,
2013-06-07 07:05:00,51.4,50.9,29.99,NNW,337,0.0,-999.0,98,-99.99,,,0.00,Acu-Link.com,2013-06-07 12:05:00,
2013-06-07 07:21:00,54.9,54.3,29.99,WNW,292,0.0,-999.0,98,-99.99,,,0.00,Acu-Link.com,2013-06-07 12:21:00,
2013-06-07 07:36:00,60.6,57.3,29.99,SW,225,0.0,-999.0,89,-99.99,,,0.00,Acu-Link.com,2013-06-07 12:36:00,
2013-06-07 07:51:00,64.9,57.9,29.99,SE,135,0.0,-999.0,78,-99.99,,,0.00,Acu-Link.com,2013-06-07 12:51:00,
2013-06-07 08:08:00,67.3,58.3,29.98,ESE,112,0.0,-999.0,73,-99.99,,,0.00,Acu-Link.com,2013-06-07 13:08:00,
2013-06-07 08:25:00,69.1,57.3,29.98,SSW,202,1.1,-999.0,66,-99.99,,,0.00,Acu-Link.com,2013-06-07 13:25:00,
2013-06-07 08:57:00,74.5,58.7,30.00,SE,135,0.0,-999.0,58,-99.99,,,0.00,Acu-Link.com,2013-06-07 13:57:00,
2013-06-07 12:14:00,73.9,56.2,29.95,NNE,22,1.1,-999.0,54,-99.99,,,0.00,Acu-Link.com,2013-06-07 17:14:00,
2013-06-07 12:29:00,71.8,55.2,29.95,SSW,202,2.2,-999.0,56,-99.99,,,0.00,Acu-Link.com,2013-06-07 17:29:00,
2013-06-07 12:44:00,73.4,55.2,29.95,NW,315,2.7,-999.0,53,-99.99,,,0.00,Acu-Link.com,2013-06-07 17:44:00,
2013-06-07 13:30:00,77.4,59.9,29.93,SSW,202,1.7,-999.0,55,-99.99,,,0.00,Acu-Link.com,2013-06-07 18:30:00,
2013-06-07 13:45:00,77.0,56.9,29.93,West,270,2.7,-999.0,50,-99.99,,,0.00,Acu-Link.com,2013-06-07 18:45:00,
2013-06-07 14:00:00,74.5,55.2,29.93,ESE,112,1.7,-999.0,51,-99.99,,,0.00,Acu-Link.com,2013-06-07 19:00:00,
2013-06-07 14:15:00,78.8,58.6,29.91,NE,45,3.7,-999.0,50,-99.99,,,0.00,Acu-Link.com,2013-06-07 19:15:00,
2013-06-07 15:02:00,80.1,56.8,29.91,WNW,292,2.2,-999.0,45,-99.99,,,0.00,Acu-Link.com,2013-06-07 20:02:00,
2013-06-07 15:17:00,79.0,57.0,29.91,North,0,3.7,-999.0,47,-99.99,,,0.00,Acu-Link.com,2013-06-07 20:17:00,
2013-06-07 15:33:00,79.3,56.7,29.90,ESE,112,2.7,-999.0,46,-99.99,,,0.00,Acu-Link.com,2013-06-07 20:33:00,
2013-06-07 15:48:00,79.9,54.7,29.90,West,270,2.2,-999.0,42,-99.99,,,0.00,Acu-Link.com,2013-06-07 20:48:00,
2013-06-07 16:03:00,79.3,56.1,29.88,ESE,112,2.7,-999.0,45,-99.99,,,0.00,Acu-Link.com,2013-06-07 21:03:00,
2013-06-07 16:18:00,79.5,55.7,29.89,ESE,112,2.7,-999.0,44,-99.99,,,0.00,Acu-Link.com,2013-06-07 21:18:00,
2013-06-07 16:34:00,79.9,55.4,29.89,NNE,22,2.7,-999.0,43,-99.99,,,0.00,Acu-Link.com,2013-06-07 21:34:00,
2013-06-07 17:04:00,78.8,55.0,29.87,North,0,4.2,-999.0,44,-99.99,,,0.00,Acu-Link.com,2013-06-07 22:04:00,
2013-06-07 17:39:00,78.3,54.6,29.86,SSW,202,2.2,-999.0,44,-99.99,,,0.00,Acu-Link.com,2013-06-07 22:39:00,
2013-06-07 18:12:00,80.2,55.7,29.86,NNW,337,1.1,-999.0,43,-99.99,,,0.00,Acu-Link.com,2013-06-07 23:12:00,